Time;durP1;ratioP1;P1;durP2;ratioP2;P2;SDS_P1;SDS_P2;PMS_P1;PMS_P2;Temp;Humidity;BMP_temperature;BMP_pressure;BME280_temperature;BME280_humidity;BME280_pressure;Samples;Min_cycle;Max_cycle;Signal;HPM_P1;HPM_P2
2022/01/17 00:01:16;;;;;;;24.83;23.13;;;4.90;81.00;;;;;;5034250;28;20213;-72
2022/01/17 00:03:43;;;;;;;26.98;25.08;;;4.90;81.50;;;;;;5035057;28;20389;-72
2022/01/17 00:06:10;;;;;;;27.70;25.90;;;4.90;81.80;;;;;;5035225;28;20284;-72
2022/01/17 00:08:41;;;;;;;26.27;24.48;;;4.90;82.20;;;;;;5035151;28;20189;-72
2022/01/17 00:11:11;;;;;;;25.70;24.00;;;4.80;82.40;;;;;;5034809;28;20312;-72
2022/01/17 00:13:39;;;;;;;26.15;24.25;;;4.90;82.50;;;;;;5034937;28;20667;-72
2022/01/17 00:16:10;;;;;;;25.95;24.10;;;4.90;82.20;;;;;;5034863;28;20574;-72
2022/01/17 00:19:06;;;;;;;26.70;24.80;;;5.00;81.70;;;;;;5034822;28;20252;-72
2022/01/17 00:21:33;;;;;;;25.95;24.15;;;5.00;81.50;;;;;;5034843;28;20197;-72
2022/01/17 00:24:00;;;;;;;25.33;23.50;;;4.90;81.80;;;;;;5034720;28;20540;-72
2022/01/17 00:26:28;;;;;;;26.08;24.23;;;4.90;81.90;;;;;;5034759;28;20284;-72
2022/01/17 00:28:55;;;;;;;24.75;23.08;;;4.80;83.00;;;;;;5034715;28;20204;-72
2022/01/17 00:31:22;;;;;;;26.45;24.55;;;4.90;82.30;;;;;;5034582;28;20197;-72
2022/01/17 00:33:49;;;;;;;26.83;24.85;;;4.80;82.30;;;;;;5034669;28;20288;-72
2022/01/17 00:36:16;;;;;;;25.38;23.58;;;4.80;82.30;;;;;;5034618;28;20251;-72
2022/01/17 00:38:43;;;;;;;26.33;24.50;;;4.80;82.30;;;;;;5034360;28;20217;-72
2022/01/17 00:41:09;;;;;;;26.38;24.50;;;4.80;82.70;;;;;;5034349;28;20606;-72
2022/01/17 00:43:38;;;;;;;25.80;23.90;;;4.80;82.80;;;;;;5034545;28;20550;-72
2022/01/17 00:46:04;;;;;;;25.30;23.40;;;4.80;82.50;;;;;;5034399;28;20701;-72
2022/01/17 00:48:31;;;;;;;25.77;23.98;;;5.00;82.10;;;;;;5034391;28;20219;-72
2022/01/17 00:50:58;;;;;;;25.98;24.00;;;5.00;81.80;;;;;;5033930;28;20695;-72
2022/01/17 00:53:25;;;;;;;25.42;23.73;;;5.00;81.50;;;;;;5034077;28;20209;-72
2022/01/17 00:55:52;;;;;;;64.68;26.30;;;4.90;81.70;;;;;;5034217;28;20193;-72
2022/01/17 00:58:19;;;;;;;24.42;22.83;;;4.90;82.30;;;;;;5033805;28;20575;-72
2022/01/17 01:00:47;;;;;;;24.50;22.90;;;4.90;85.90;;;;;;5033948;28;20247;-72
2022/01/17 01:03:14;;;;;;;24.52;22.88;;;5.00;83.20;;;;;;5033880;28;20746;-72
2022/01/17 01:05:41;;;;;;;24.75;23.15;;;5.00;82.60;;;;;;5033993;28;20741;-72
2022/01/17 01:08:08;;;;;;;24.63;22.92;;;5.00;82.60;;;;;;5033871;28;20193;-72
2022/01/17 01:10:35;;;;;;;25.77;23.77;;;5.00;82.70;;;;;;5033699;28;20722;-72
2022/01/17 01:13:02;;;;;;;25.83;23.98;;;5.00;82.10;;;;;;5032827;28;20288;-72
2022/01/17 01:15:57;;;;;;;24.17;22.67;;;5.10;81.70;;;;;;5033866;28;20611;-72
2022/01/17 01:18:38;;;;;;;25.40;23.70;;;5.10;81.60;;;;;;5033637;28;20304;-72
2022/01/17 01:21:42;;;;;;;24.55;23.05;;;5.10;81.90;;;;;;5033613;28;20651;-72
2022/01/17 01:29:56;;;;;;;26.85;24.85;;;4.70;83.30;;;;;;4953346;29;20294;-71
2022/01/17 01:32:28;;;;;;;28.08;25.98;;;4.60;83.70;;;;;;5000465;28;20636;-72
2022/01/17 01:34:59;;;;;;;28.48;26.30;;;4.50;84.60;;;;;;5033577;28;20207;-72
2022/01/17 01:37:26;;;;;;;28.85;26.75;;;4.40;85.00;;;;;;5033532;28;20306;-72
2022/01/17 01:39:54;;;;;;;28.20;26.10;;;4.40;85.20;;;;;;5033140;28;20283;-72
2022/01/17 01:42:22;;;;;;;27.48;25.35;;;4.40;85.30;;;;;;5033465;28;20197;-72
2022/01/17 01:44:51;;;;;;;29.38;26.85;;;4.40;85.10;;;;;;5033336;28;20200;-72
2022/01/17 01:47:21;;;;;;;26.75;24.75;;;4.30;85.40;;;;;;5033276;28;20221;-72
2022/01/17 01:49:48;;;;;;;27.38;25.08;;;4.20;85.60;;;;;;5033019;28;20217;-72
2022/01/17 01:52:16;;;;;;;27.10;25.00;;;4.20;85.70;;;;;;5033120;28;20681;-72
2022/01/17 01:54:43;;;;;;;28.02;25.95;;;4.20;85.80;;;;;;5033109;28;20265;-72
2022/01/17 01:57:11;;;;;;;27.00;24.90;;;4.20;86.40;;;;;;5033010;28;20204;-72
2022/01/17 01:59:38;;;;;;;26.55;24.63;;;4.30;85.90;;;;;;5032815;28;20225;-72
2022/01/17 02:02:06;;;;;;;28.05;25.95;;;4.40;85.90;;;;;;5032901;28;20197;-72
2022/01/17 02:04:34;;;;;;;27.77;25.67;;;4.40;85.70;;;;;;5032977;28;20204;-72
2022/01/17 02:07:01;;;;;;;27.77;25.80;;;4.60;85.20;;;;;;5032974;28;20284;-72
2022/01/17 02:09:29;;;;;;;27.10;25.17;;;4.60;84.90;;;;;;5032544;28;20209;-72
2022/01/17 02:11:56;;;;;;;27.40;25.40;;;4.60;85.60;;;;;;5033025;28;20540;-72
2022/01/17 02:14:23;;;;;;;28.17;25.90;;;4.60;85.10;;;;;;5032696;28;20201;-72
2022/01/17 02:16:51;;;;;;;26.75;24.85;;;4.60;85.00;;;;;;5032715;28;20197;-72
2022/01/17 02:19:21;;;;;;;27.65;25.35;;;4.60;84.70;;;;;;5032454;28;20780;-72
2022/01/17 02:21:50;;;;;;;27.45;25.45;;;4.60;84.40;;;;;;5032800;28;20208;-72
2022/01/17 02:24:20;;;;;;;26.98;24.98;;;4.60;88.00;;;;;;5032430;28;20199;-72
2022/01/17 02:26:49;;;;;;;27.77;25.77;;;4.60;87.60;;;;;;5032585;28;20212;-72
2022/01/17 02:29:16;;;;;;;28.00;25.80;;;4.80;85.80;;;;;;5032330;28;21665;-72
2022/01/17 02:31:45;;;;;;;27.48;25.27;;;4.80;85.20;;;;;;5032585;28;20251;-72
2022/01/17 02:34:13;;;;;;;27.70;25.65;;;4.80;85.00;;;;;;5032592;28;20221;-72
2022/01/17 02:36:41;;;;;;;26.52;24.63;;;4.80;85.10;;;;;;5032579;28;20203;-72
2022/01/17 02:39:09;;;;;;;28.63;26.42;;;4.90;84.30;;;;;;5032215;28;20224;-72
2022/01/17 02:41:39;;;;;;;28.45;26.45;;;4.80;84.60;;;;;;5032514;28;20556;-72
2022/01/17 02:44:06;;;;;;;27.58;25.35;;;4.90;84.60;;;;;;5032460;28;20208;-72
2022/01/17 02:46:33;;;;;;;26.27;24.27;;;4.80;85.40;;;;;;5032399;28;20619;-72
2022/01/17 02:49:02;;;;;;;27.35;25.45;;;4.80;85.30;;;;;;5032307;28;20197;-72
2022/01/17 02:51:29;;;;;;;27.80;25.77;;;4.70;85.40;;;;;;5032232;28;20571;-72
2022/01/17 02:53:57;;;;;;;27.45;25.35;;;4.60;89.50;;;;;;5032334;28;20483;-72
2022/01/17 02:56:25;;;;;;;26.27;24.27;;;4.60;87.60;;;;;;5032372;28;20197;-72
2022/01/17 02:58:52;;;;;;;26.40;24.50;;;4.70;86.80;;;;;;5031907;28;20220;-72
2022/01/17 03:01:22;;;;;;;28.23;26.33;;;4.60;86.10;;;;;;5032164;28;20228;-72
2022/01/17 03:03:50;;;;;;;28.02;25.85;;;4.40;86.50;;;;;;5032092;28;20199;-72
2022/01/17 03:06:17;;;;;;;28.08;25.98;;;4.50;86.70;;;;;;5032344;28;20219;-72
2022/01/17 03:08:45;;;;;;;36.85;27.33;;;4.50;86.50;;;;;;5032118;28;20202;-72
2022/01/17 03:11:13;;;;;;;27.45;25.50;;;4.50;86.50;;;;;;5031993;28;20225;-72
2022/01/17 03:13:42;;;;;;;27.98;25.70;;;4.50;88.80;;;;;;5032181;28;20203;-72
2022/01/17 03:16:12;;;;;;;26.85;24.75;;;4.50;90.10;;;;;;5032151;28;20289;-72
2022/01/17 03:18:42;;;;;;;26.27;24.35;;;4.60;89.20;;;;;;5032097;28;20288;-72
2022/01/17 03:21:10;;;;;;;27.45;25.45;;;4.60;88.60;;;;;;5031864;28;20396;-72
2022/01/17 03:23:39;;;;;;;28.08;25.85;;;4.50;88.30;;;;;;5032108;28;20552;-72
2022/01/17 03:26:07;;;;;;;27.92;25.95;;;4.50;88.40;;;;;;5032157;28;20204;-72
2022/01/17 03:28:34;;;;;;;27.20;25.33;;;4.50;88.10;;;;;;5031997;28;20197;-72
2022/01/17 03:31:03;;;;;;;106.57;35.55;;;4.60;89.10;;;;;;5031838;28;20214;-72
2022/01/17 03:33:30;;;;;;;31.92;28.65;;;4.60;89.90;;;;;;5032004;28;20659;-72
2022/01/17 03:35:58;;;;;;;32.38;28.65;;;4.60;90.90;;;;;;5033934;28;20670;-72
2022/01/17 03:38:27;;;;;;;28.80;26.60;;;4.70;91.00;;;;;;5035652;28;20284;-72
2022/01/17 03:40:55;;;;;;;28.38;26.08;;;4.70;92.00;;;;;;5035287;28;20227;-72
2022/01/17 03:43:23;;;;;;;27.33;25.33;;;4.80;90.80;;;;;;5035806;28;20291;-72
2022/01/17 03:45:50;;;;;;;27.35;25.27;;;4.70;89.70;;;;;;5035476;28;20280;-72
2022/01/17 03:48:20;;;;;;;27.15;25.25;;;4.70;89.30;;;;;;5035508;28;20217;-72
2022/01/17 03:50:47;;;;;;;28.42;26.25;;;4.60;89.10;;;;;;5035205;28;20216;-72
2022/01/17 03:53:14;;;;;;;27.05;25.05;;;4.60;88.40;;;;;;5035299;28;20216;-72
2022/01/17 03:55:40;;;;;;;27.85;25.85;;;4.60;88.40;;;;;;5035371;28;20201;-72
2022/01/17 03:58:08;;;;;;;127.55;36.22;;;4.60;88.60;;;;;;5034940;28;20203;-72
2022/01/17 04:00:38;;;;;;;49.15;28.85;;;4.60;90.20;;;;;;5034942;28;20309;-71
2022/01/17 04:03:05;;;;;;;30.25;27.75;;;4.60;90.30;;;;;;5035001;28;20207;-72
2022/01/17 04:05:33;;;;;;;29.25;27.23;;;4.60;90.20;;;;;;5035233;28;20208;-72
2022/01/17 04:08:00;;;;;;;28.77;26.67;;;4.60;89.90;;;;;;5035124;28;20208;-72
2022/01/17 04:10:27;;;;;;;28.75;26.55;;;4.60;89.80;;;;;;5034796;28;20291;-72
2022/01/17 04:13:00;;;;;;;29.58;27.35;;;4.60;89.80;;;;;;5035054;28;20197;-72
2022/01/17 04:15:27;;;;;;;31.98;29.55;;;4.60;89.70;;;;;;5034932;28;20295;-72
2022/01/17 04:17:54;;;;;;;29.42;27.17;;;4.60;89.40;;;;;;5034929;28;20197;-72
2022/01/17 04:20:26;;;;;;;31.08;28.98;;;4.60;89.20;;;;;;5034552;28;20332;-71
2022/01/17 04:22:56;;;;;;;29.52;27.33;;;4.60;89.30;;;;;;5034937;28;20229;-72
2022/01/17 04:25:24;;;;;;;27.65;25.65;;;4.60;89.60;;;;;;5034771;28;20204;-72
2022/01/17 04:27:52;;;;;;;28.73;26.73;;;4.60;89.70;;;;;;5034701;28;20198;-72
2022/01/17 04:30:20;;;;;;;30.25;28.08;;;4.60;89.60;;;;;;5034419;28;20695;-72
2022/01/17 04:32:48;;;;;;;27.92;25.88;;;4.60;89.60;;;;;;5034748;28;20292;-72
2022/01/17 04:35:20;;;;;;;27.40;25.48;;;4.60;89.60;;;;;;5034722;28;20212;-72
2022/01/17 04:37:49;;;;;;;35.80;27.50;;;4.60;89.50;;;;;;5034689;28;20251;-72
2022/01/17 04:40:17;;;;;;;28.20;26.05;;;4.60;89.50;;;;;;5034035;28;20217;-72
2022/01/17 04:42:47;;;;;;;27.90;26.00;;;4.60;93.00;;;;;;5034569;28;20360;-72
2022/01/17 04:45:16;;;;;;;28.55;26.35;;;4.60;92.70;;;;;;5034461;28;20693;-72
2022/01/17 04:47:46;;;;;;;201.40;41.50;;;4.60;96.20;;;;;;5034111;28;20201;-72
2022/01/17 04:50:16;;;;;;;27.20;25.10;;;4.60;95.40;;;;;;5034141;28;20707;-72
2022/01/17 04:52:44;;;;;;;28.52;26.20;;;4.60;93.40;;;;;;5034193;28;20209;-72
2022/01/17 04:55:14;;;;;;;27.77;25.67;;;4.60;94.00;;;;;;5034264;28;20204;-72
2022/01/17 04:57:43;;;;;;;28.00;25.90;;;4.70;93.00;;;;;;5034086;28;20550;-72
2022/01/17 05:00:12;;;;;;;28.63;26.58;;;4.60;92.70;;;;;;5033864;28;20697;-72
2022/01/17 05:02:39;;;;;;;50.80;28.35;;;4.60;93.60;;;;;;5033871;28;20208;-72
2022/01/17 05:05:07;;;;;;;29.23;27.08;;;4.60;92.90;;;;;;5034091;28;20201;-72
2022/01/17 05:07:34;;;;;;;28.33;26.02;;;4.70;92.80;;;;;;5034068;28;20197;-72
2022/01/17 05:10:01;;;;;;;27.92;25.98;;;4.70;94.40;;;;;;5033824;28;20213;-72
2022/01/17 05:12:28;;;;;;;26.63;24.52;;;4.70;92.90;;;;;;5033978;28;20207;-72
2022/01/17 05:14:58;;;;;;;28.13;25.92;;;4.70;92.50;;;;;;5033943;28;20199;-72
2022/01/17 05:17:39;;;;;;;29.75;27.38;;;4.70;92.20;;;;;;5033856;28;20285;-72
2022/01/17 05:20:08;;;;;;;25.77;23.95;;;4.70;92.10;;;;;;5033475;28;20220;-72
2022/01/17 05:22:37;;;;;;;1712.40;256.40;;;4.60;91.60;;;;;;5033869;28;20193;-72
2022/01/17 05:25:07;;;;;;;1918.97;278.38;;;4.70;94.30;;;;;;5033652;28;20202;-72
2022/01/17 05:27:34;;;;;;;693.45;99.55;;;4.70;96.40;;;;;;5033697;28;20197;-72
2022/01/17 05:30:04;;;;;;;28.77;26.50;;;4.80;95.70;;;;;;5033315;28;20220;-71
2022/01/17 05:32:31;;;;;;;27.50;25.30;;;4.80;94.70;;;;;;5033466;28;20676;-72
2022/01/17 05:34:58;;;;;;;28.00;25.85;;;4.80;94.20;;;;;;5033509;28;20544;-72
2022/01/17 05:37:25;;;;;;;27.48;25.38;;;4.80;94.40;;;;;;5033474;28;20663;-72
2022/01/17 05:39:52;;;;;;;28.98;26.88;;;4.80;92.90;;;;;;5033013;28;20225;-72
2022/01/17 05:42:20;;;;;;;26.90;25.00;;;4.90;92.80;;;;;;5033467;28;20200;-72
2022/01/17 05:44:47;;;;;;;28.17;26.08;;;4.90;91.60;;;;;;5033115;28;20201;-72
2022/01/17 05:47:16;;;;;;;27.65;25.67;;;4.80;90.60;;;;;;5033250;28;20193;-72
2022/01/17 05:49:44;;;;;;;25.58;23.58;;;4.80;90.90;;;;;;5032950;28;20718;-72
2022/01/17 05:52:12;;;;;;;27.77;25.75;;;4.80;90.90;;;;;;5033063;28;20209;-72
2022/01/17 05:54:40;;;;;;;29.27;26.80;;;4.60;91.30;;;;;;5033070;28;20201;-72
2022/01/17 05:57:07;;;;;;;28.60;26.40;;;4.70;91.50;;;;;;5032908;28;20240;-72
2022/01/17 05:59:34;;;;;;;27.73;25.65;;;4.60;91.70;;;;;;5032197;28;20304;-72
2022/01/17 06:02:01;;;;;;;28.08;25.98;;;4.50;92.10;;;;;;5033010;28;20201;-72
2022/01/17 06:04:29;;;;;;;29.13;27.05;;;4.50;92.20;;;;;;5032850;28;20291;-72
2022/01/17 06:06:56;;;;;;;27.15;24.85;;;4.60;92.20;;;;;;5032955;28;20620;-72
2022/01/17 06:09:23;;;;;;;88.00;30.50;;;4.60;92.20;;;;;;5032575;28;20229;-72
2022/01/17 06:11:50;;;;;;;27.77;25.42;;;4.50;92.50;;;;;;5032880;28;20201;-72
2022/01/17 06:14:18;;;;;;;27.55;25.20;;;4.60;92.60;;;;;;5032822;28;20288;-72
2022/01/17 06:16:46;;;;;;;29.83;27.35;;;4.60;93.80;;;;;;5032759;28;20196;-72
2022/01/17 06:19:13;;;;;;;28.52;26.33;;;4.70;94.20;;;;;;5032496;28;20678;-72
2022/01/17 06:21:42;;;;;;;26.85;24.80;;;4.80;93.70;;;;;;5032712;28;20221;-72
2022/01/17 06:24:10;;;;;;;27.77;25.60;;;4.70;93.20;;;;;;5032749;28;20197;-72
2022/01/17 06:26:39;;;;;;;30.60;28.00;;;4.70;92.90;;;;;;5032750;28;20208;-72
2022/01/17 06:29:06;;;;;;;28.70;26.38;;;4.70;92.70;;;;;;5032393;28;20197;-72
2022/01/17 06:31:33;;;;;;;28.75;26.48;;;4.60;92.90;;;;;;5032527;28;20193;-72
2022/01/17 06:34:00;;;;;;;27.92;25.92;;;4.70;92.80;;;;;;5032516;28;20197;-72
2022/01/17 06:36:27;;;;;;;29.85;27.85;;;4.60;92.70;;;;;;5032478;28;20203;-72
2022/01/17 06:38:55;;;;;;;27.67;25.50;;;4.50;92.40;;;;;;5032335;28;20201;-72
2022/01/17 06:41:22;;;;;;;23.88;22.08;;;4.50;92.40;;;;;;5032255;28;20721;-72
2022/01/17 06:43:49;;;;;;;27.02;25.23;;;4.50;93.00;;;;;;5032497;28;20206;-72
2022/01/17 06:46:17;;;;;;;27.13;25.10;;;4.50;92.70;;;;;;5032489;28;20280;-72
2022/01/17 06:48:46;;;;;;;27.25;25.25;;;4.50;92.90;;;;;;5032449;28;20193;-72
2022/01/17 06:51:13;;;;;;;27.58;25.58;;;4.50;92.70;;;;;;5032288;28;20263;-72
2022/01/17 06:53:41;;;;;;;27.80;25.65;;;4.50;92.80;;;;;;5032259;28;20559;-72
2022/01/17 06:56:09;;;;;;;32.25;24.88;;;4.60;92.80;;;;;;5032369;28;20676;-72
2022/01/17 06:58:36;;;;;;;27.50;25.45;;;4.60;92.90;;;;;;5032063;28;20551;-72
2022/01/17 07:01:04;;;;;;;26.45;24.67;;;4.60;93.30;;;;;;5031977;28;20232;-72
2022/01/17 07:03:31;;;;;;;26.80;24.80;;;4.80;92.50;;;;;;5032092;28;20197;-72
2022/01/17 07:05:58;;;;;;;26.58;24.88;;;4.80;92.20;;;;;;5032291;28;20280;-72
2022/01/17 07:08:25;;;;;;;25.67;23.92;;;4.90;92.40;;;;;;5032093;28;20288;-72
2022/01/17 07:10:52;;;;;;;26.27;24.48;;;4.90;92.00;;;;;;5035599;28;20643;-71
2022/01/17 07:13:20;;;;;;;26.48;24.67;;;4.90;91.70;;;;;;5036269;28;20279;-72
2022/01/17 07:15:47;;;;;;;26.50;24.70;;;5.00;92.50;;;;;;5036262;28;20204;-72
2022/01/17 07:18:14;;;;;;;24.73;23.05;;;5.00;91.80;;;;;;5036062;28;20197;-72
2022/01/17 07:20:41;;;;;;;26.23;24.33;;;5.00;91.40;;;;;;5035735;28;20698;-71
2022/01/17 07:23:09;;;;;;;25.92;24.00;;;5.00;91.60;;;;;;5035938;28;20285;-72
2022/01/17 07:25:38;;;;;;;69.50;28.27;;;5.00;93.60;;;;;;5036014;28;20208;-72
2022/01/17 07:28:06;;;;;;;25.60;23.90;;;5.00;94.80;;;;;;5035930;28;20674;-72
2022/01/17 07:30:35;;;;;;;25.05;23.40;;;5.00;95.00;;;;;;5035614;28;20219;-72
2022/01/17 07:33:03;;;;;;;24.80;23.23;;;5.10;93.60;;;;;;5035796;28;20208;-72
2022/01/17 07:35:29;;;;;;;24.27;22.75;;;5.30;91.80;;;;;;5035786;28;20204;-72
2022/01/17 07:37:57;;;;;;;23.98;22.48;;;5.40;90.90;;;;;;5035772;28;20285;-72
2022/01/17 07:40:24;;;;;;;23.42;21.98;;;5.40;90.10;;;;;;5035436;28;20233;-72
2022/01/17 07:42:51;;;;;;;23.67;22.15;;;5.40;90.70;;;;;;5035682;28;20197;-72
2022/01/17 07:45:20;;;;;;;25.05;23.35;;;5.20;90.20;;;;;;5035654;28;20225;-72
2022/01/17 07:48:08;;;;;;;23.98;22.45;;;5.30;90.00;;;;;;5035506;28;20666;-72
2022/01/17 07:50:36;;;;;;;23.20;21.80;;;5.40;89.40;;;;;;5035379;28;20218;-72
2022/01/17 07:53:03;;;;;;;36.08;24.33;;;5.40;89.10;;;;;;5035348;28;20212;-72
2022/01/17 07:55:29;;;;;;;25.13;23.45;;;5.40;89.60;;;;;;5035447;28;20201;-72
2022/01/17 07:57:56;;;;;;;23.13;21.65;;;5.50;89.80;;;;;;5035158;28;20204;-72
2022/01/17 08:00:25;;;;;;;24.00;22.48;;;5.60;89.30;;;;;;5034947;28;20563;-72
2022/01/17 08:02:56;;;;;;;24.10;22.52;;;5.60;88.70;;;;;;5035070;28;20205;-72
2022/01/17 08:05:23;;;;;;;22.65;21.25;;;5.60;89.00;;;;;;5035231;28;20255;-72
2022/01/17 08:07:51;;;;;;;23.65;21.95;;;5.70;88.30;;;;;;5035223;28;20197;-72
2022/01/17 08:10:18;;;;;;;24.20;22.70;;;5.70;88.30;;;;;;5035030;28;20710;-72
2022/01/17 08:12:47;;;;;;;25.02;23.42;;;5.60;89.70;;;;;;5035124;28;20231;-72
2022/01/17 08:15:15;;;;;;;25.25;23.50;;;5.60;88.70;;;;;;5035031;28;20193;-72
2022/01/17 08:17:42;;;;;;;25.05;23.35;;;5.70;87.70;;;;;;5035145;28;20219;-72
2022/01/17 08:20:11;;;;;;;25.48;23.70;;;5.80;87.70;;;;;;5034663;28;20224;-72
2022/01/17 08:22:38;;;;;;;25.23;23.73;;;5.70;87.40;;;;;;5034492;28;20197;-72
2022/01/17 08:25:06;;;;;;;23.70;22.25;;;5.80;87.40;;;;;;5034860;28;20208;-72
2022/01/17 08:27:33;;;;;;;26.67;24.98;;;5.90;86.60;;;;;;5034816;28;20197;-72
2022/01/17 08:30:00;;;;;;;24.55;22.85;;;5.90;86.70;;;;;;5034699;28;20224;-71
2022/01/17 08:32:29;;;;;;;25.73;24.13;;;5.90;86.50;;;;;;5034738;28;20197;-72
2022/01/17 08:34:57;;;;;;;24.48;22.98;;;6.00;86.20;;;;;;5034793;28;20201;-72
2022/01/17 08:37:26;;;;;;;27.45;25.70;;;6.10;85.60;;;;;;5034709;28;20198;-72
2022/01/17 08:39:53;;;;;;;24.45;22.85;;;6.10;85.60;;;;;;5034276;28;20308;-71
2022/01/17 08:42:20;;;;;;;26.50;24.70;;;6.10;85.40;;;;;;5034618;28;20613;-72
2022/01/17 08:44:49;;;;;;;24.15;22.65;;;6.20;84.80;;;;;;5034614;28;20197;-72
2022/01/17 08:47:16;;;;;;;25.55;24.00;;;6.20;85.40;;;;;;5034495;28;20200;-72
2022/01/17 08:49:43;;;;;;;25.95;24.25;;;6.20;85.70;;;;;;5034106;28;20224;-72
2022/01/17 08:52:11;;;;;;;23.67;22.08;;;6.40;84.20;;;;;;5034275;28;20205;-72
2022/01/17 08:54:39;;;;;;;24.35;22.75;;;6.30;83.90;;;;;;5034340;28;20292;-72
2022/01/17 08:57:06;;;;;;;23.88;22.33;;;6.30;83.60;;;;;;5034190;28;20201;-71
2022/01/17 08:59:33;;;;;;;23.40;22.10;;;6.30;83.70;;;;;;5033899;28;20586;-72
2022/01/17 09:02:00;;;;;;;21.00;19.70;;;6.30;83.50;;;;;;5034145;28;20227;-72
2022/01/17 09:04:27;;;;;;;24.30;22.80;;;6.20;83.50;;;;;;5033839;28;20224;-72
2022/01/17 09:06:54;;;;;;;25.10;23.40;;;6.30;83.40;;;;;;5034103;28;20284;-72
2022/01/17 09:09:20;;;;;;;24.60;23.10;;;6.30;83.20;;;;;;5033925;28;20219;-71
2022/01/17 09:11:49;;;;;;;24.75;23.25;;;6.50;82.90;;;;;;5034018;28;20200;-72
2022/01/17 09:14:16;;;;;;;25.13;23.63;;;6.60;83.20;;;;;;5034077;28;20293;-72
2022/01/17 09:16:42;;;;;;;22.60;21.30;;;6.80;83.40;;;;;;5033927;28;20198;-72
2022/01/17 09:19:10;;;;;;;25.63;23.95;;;6.90;82.20;;;;;;5033564;28;20633;-72
2022/01/17 09:21:37;;;;;;;24.40;23.00;;;7.10;84.60;;;;;;5033814;28;20220;-72
2022/01/17 09:24:04;;;;;;;27.13;25.35;;;7.30;83.50;;;;;;5033881;28;20207;-72
2022/01/17 09:26:31;;;;;;;24.40;22.83;;;7.50;82.50;;;;;;5033722;28;20198;-72
2022/01/17 09:28:59;;;;;;;25.25;23.85;;;7.60;81.00;;;;;;5034384;28;20200;-72
2022/01/17 09:31:26;;;;;;;26.63;24.92;;;7.70;81.50;;;;;;5033740;28;20239;-72
2022/01/17 09:33:53;;;;;;;26.25;24.75;;;7.60;82.10;;;;;;5032715;28;20197;-72
2022/01/17 09:36:23;;;;;;;24.20;22.77;;;7.80;79.10;;;;;;5033606;28;20655;-72
2022/01/17 09:38:50;;;;;;;24.85;23.45;;;7.80;79.80;;;;;;5033506;28;20228;-72
2022/01/17 09:41:17;;;;;;;23.13;21.77;;;7.80;78.50;;;;;;5033262;28;20308;-72
2022/01/17 09:43:44;;;;;;;22.95;21.70;;;7.90;78.20;;;;;;5033361;28;20637;-72
2022/01/17 09:46:14;;;;;;;25.05;23.65;;;8.00;78.00;;;;;;5033404;28;20211;-72
2022/01/17 09:48:47;;;;;;;25.25;23.48;;;8.00;78.60;;;;;;5033298;28;20212;-72
2022/01/17 09:51:37;;;;;;;24.65;23.35;;;8.00;78.70;;;;;;5033187;28;20300;-71
2022/01/17 09:54:05;;;;;;;23.38;21.98;;;8.00;78.00;;;;;;5033202;28;20288;-73
2022/01/17 09:56:33;;;;;;;22.70;21.40;;;8.00;78.10;;;;;;5033211;28;20300;-73
2022/01/17 09:59:01;;;;;;;24.50;23.10;;;7.90;78.10;;;;;;5032715;28;20284;-73
2022/01/17 10:01:30;;;;;;;25.08;23.70;;;8.00;78.10;;;;;;5032800;28;20217;-72
2022/01/17 10:03:57;;;;;;;23.20;21.65;;;8.10;76.90;;;;;;5032837;28;20197;-73
2022/01/17 10:06:25;;;;;;;25.52;24.02;;;8.10;76.90;;;;;;5032971;28;20698;-73
2022/01/17 10:09:09;;;;;;;22.67;21.38;;;8.00;76.70;;;;;;5032996;28;20255;-73
2022/01/17 10:11:36;;;;;;;23.67;22.33;;;8.20;76.60;;;;;;5032914;28;20194;-72
2022/01/17 10:14:03;;;;;;;24.45;23.25;;;8.10;76.60;;;;;;5032824;28;20203;-73
2022/01/17 10:16:32;;;;;;;23.90;22.40;;;8.10;78.30;;;;;;5032827;28;20202;-72
2022/01/17 10:19:00;;;;;;;21.23;20.23;;;8.20;76.00;;;;;;5032720;28;20208;-72
2022/01/17 10:21:32;;;;;;;21.73;20.52;;;8.20;75.80;;;;;;5032570;28;20217;-72
2022/01/17 10:27:10;;;;;;;24.08;22.67;;;8.30;75.30;;;;;;5032780;28;20188;-72
2022/01/17 10:35:19;;;;;;;23.77;22.48;;;8.40;75.40;;;;;;4999058;28;20676;-72
2022/01/17 10:37:58;;;;;;;23.50;22.20;;;8.50;74.70;;;;;;5032623;28;20204;-73
2022/01/17 10:40:26;;;;;;;21.67;20.48;;;8.50;74.60;;;;;;5032256;28;20213;-72
2022/01/17 10:42:55;;;;;;;24.40;23.00;;;8.40;74.00;;;;;;5032579;28;20220;-73
2022/01/17 10:45:25;;;;;;;22.65;21.45;;;8.40;73.90;;;;;;5032942;28;20201;-72
2022/01/17 10:47:55;;;;;;;24.10;22.75;;;8.30;74.10;;;;;;5035171;28;20201;-72
2022/01/17 10:50:24;;;;;;;23.27;22.00;;;8.20;74.30;;;;;;5034278;28;20784;-72
2022/01/17 10:52:52;;;;;;;25.77;24.38;;;8.00;80.00;;;;;;5032377;28;20205;-73
2022/01/17 10:55:21;;;;;;;25.05;23.73;;;8.00;75.70;;;;;;5032573;28;20197;-73
2022/01/17 10:57:51;;;;;;;24.63;23.33;;;8.10;75.20;;;;;;5032394;28;20233;-73
2022/01/17 11:00:20;;;;;;;24.30;23.20;;;8.00;75.70;;;;;;5032231;28;20227;-73
2022/01/17 11:02:50;;;;;;;25.45;24.15;;;8.10;75.40;;;;;;5032267;28;20221;-72
2022/01/17 11:05:19;;;;;;;22.98;21.77;;;8.10;75.60;;;;;;5032566;28;20201;-72
2022/01/17 11:07:48;;;;;;;23.02;21.83;;;7.90;75.10;;;;;;5032813;28;20204;-70
2022/01/17 11:10:21;;;;;;;25.17;23.65;;;7.80;75.00;;;;;;5033894;28;20221;-71
2022/01/17 11:12:49;;;;;;;23.70;22.42;;;7.60;76.50;;;;;;5032440;28;20284;-71
2022/01/17 11:15:18;;;;;;;24.58;23.27;;;7.60;76.90;;;;;;5032325;28;20197;-72
2022/01/17 11:17:50;;;;;;;24.55;23.15;;;7.60;77.20;;;;;;5032330;28;20288;-72
2022/01/17 11:20:20;;;;;;;24.15;22.73;;;7.60;76.70;;;;;;5032143;28;20223;-71
2022/01/17 11:22:49;;;;;;;21.20;20.10;;;7.60;76.90;;;;;;5032182;28;20225;-71
2022/01/17 11:25:18;;;;;;;21.98;20.80;;;7.60;76.20;;;;;;5032170;28;20659;-72
2022/01/17 11:27:46;;;;;;;22.27;21.13;;;7.60;76.00;;;;;;5032241;28;20207;-71
2022/01/17 11:30:14;;;;;;;23.15;22.10;;;7.70;75.70;;;;;;5032074;28;20214;-72
2022/01/17 11:32:41;;;;;;;22.30;21.17;;;7.60;77.00;;;;;;5032151;28;20201;-71
2022/01/17 11:35:10;;;;;;;22.42;21.23;;;7.70;78.70;;;;;;5032222;28;20197;-71
2022/01/17 11:37:41;;;;;;;24.50;23.30;;;7.80;78.80;;;;;;5032394;28;20200;-71
2022/01/17 11:40:10;;;;;;;23.48;22.17;;;7.80;76.20;;;;;;5031951;28;20218;-71
2022/01/17 11:42:40;;;;;;;24.35;22.75;;;7.50;77.30;;;;;;5032254;28;20224;-72
2022/01/17 11:45:37;;;;;;;27.02;25.25;;;7.30;78.80;;;;;;5031925;28;20198;-72
2022/01/17 11:48:09;;;;;;;26.98;25.40;;;6.90;79.80;;;;;;5031940;28;20215;-71
2022/01/17 11:50:42;;;;;;;26.58;24.98;;;6.70;81.40;;;;;;5031673;28;20300;-71
2022/01/17 11:53:39;;;;;;;24.88;23.40;;;6.50;82.70;;;;;;5031845;28;20202;-71
2022/01/17 11:56:07;;;;;;;24.33;22.85;;;6.70;84.40;;;;;;5032544;28;20207;-71
2022/01/17 11:58:39;;;;;;;23.70;22.40;;;6.80;82.90;;;;;;5035333;28;20232;-71
2022/01/17 12:01:11;;;;;;;25.83;24.20;;;6.90;82.20;;;;;;5035306;28;20227;-72
2022/01/17 12:03:41;;;;;;;24.50;23.00;;;7.10;81.80;;;;;;5035060;28;20706;-71
2022/01/17 12:06:26;;;;;;;24.42;23.05;;;7.00;82.20;;;;;;5035165;28;20737;-71
2022/01/17 12:09:19;;;;;;;23.45;22.15;;;7.10;82.10;;;;;;5035186;28;20304;-72
2022/01/17 12:11:47;;;;;;;22.85;21.38;;;7.10;81.40;;;;;;5035179;28;20197;-71
2022/01/17 12:14:27;;;;;;;23.98;22.58;;;7.10;81.30;;;;;;5035196;28;20276;-71
2022/01/17 12:16:55;;;;;;;21.85;20.73;;;7.30;83.20;;;;;;5034993;28;20200;-71
2022/01/17 12:19:22;;;;;;;22.20;21.00;;;7.60;81.40;;;;;;5034765;28;20221;-71
2022/01/17 12:21:54;;;;;;;21.00;19.90;;;7.70;82.00;;;;;;5034981;28;20221;-72
2022/01/17 12:24:46;;;;;;;21.63;20.52;;;7.80;80.30;;;;;;5035055;28;20292;-71
2022/01/17 12:27:20;;;;;;;22.58;21.38;;;7.90;79.60;;;;;;5034926;28;20259;-71
2022/01/17 12:29:53;;;;;;;22.88;21.77;;;8.00;81.70;;;;;;5034690;28;20299;-71
2022/01/17 12:32:51;;;;;;;24.10;22.80;;;8.00;78.30;;;;;;5034894;28;20239;-71
2022/01/17 12:35:30;;;;;;;24.23;22.92;;;7.90;77.70;;;;;;5034828;28;20208;-71
2022/01/17 12:38:06;;;;;;;22.27;21.02;;;7.90;78.30;;;;;;5034818;28;20200;-71
2022/01/17 12:40:36;;;;;;;23.55;22.25;;;7.90;77.70;;;;;;5034472;28;20308;-72
2022/01/17 12:43:06;;;;;;;24.80;23.60;;;7.90;77.30;;;;;;5034674;28;20307;-72
2022/01/17 12:45:36;;;;;;;24.98;23.63;;;7.80;75.80;;;;;;5035906;28;20233;-71
2022/01/17 12:48:05;;;;;;;24.02;22.73;;;7.90;76.70;;;;;;5034994;28;20201;-71
2022/01/17 12:50:33;;;;;;;22.55;21.35;;;7.90;76.70;;;;;;5034351;28;20698;-71
2022/01/17 12:53:01;;;;;;;26.30;24.90;;;7.90;81.90;;;;;;5034303;28;20263;-72
2022/01/17 12:55:38;;;;;;;24.08;22.67;;;8.10;78.00;;;;;;5034391;28;20197;-72
2022/01/17 12:58:17;;;;;;;25.92;24.42;;;8.20;76.50;;;;;;5034461;28;20196;-72
2022/01/17 13:00:47;;;;;;;21.70;20.60;;;7.90;76.60;;;;;;5034175;28;20221;-72